createdAt,value
2018-10-05T00:00:45.425Z,0
2018-10-05T00:01:55.373Z,0
2018-10-05T00:03:05.319Z,0
2018-10-05T00:04:15.279Z,0
2018-10-05T00:05:24.960Z,0
2018-10-05T00:06:34.916Z,0
2018-10-05T00:07:44.867Z,0
2018-10-05T00:08:54.823Z,0
2018-10-05T00:10:04.777Z,0
2018-10-05T00:11:14.733Z,0
2018-10-05T00:12:24.690Z,0
2018-10-05T00:13:34.642Z,0
2018-10-05T00:14:44.594Z,0
2018-10-05T00:15:54.539Z,0
2018-10-05T00:17:04.481Z,0
2018-10-05T00:18:13.928Z,0
2018-10-05T00:19:24.067Z,0
2018-10-05T00:20:34.510Z,0
2018-10-05T00:21:44.509Z,0
2018-10-05T00:22:54.453Z,0
2018-10-05T00:24:04.132Z,0
2018-10-05T00:25:14.079Z,0
2018-10-05T00:26:24.029Z,0
2018-10-05T00:27:33.979Z,0
2018-10-05T00:28:43.671Z,0
2018-10-05T00:29:53.624Z,0
2018-10-05T00:31:03.335Z,0
2018-10-05T00:32:13.345Z,0
2018-10-05T00:33:23.033Z,0
2018-10-05T00:34:32.735Z,0
2018-10-05T00:35:42.431Z,0
2018-10-05T00:36:52.132Z,0
2018-10-05T00:38:02.434Z,0
2018-10-05T00:39:12.190Z,0
2018-10-05T00:40:22.174Z,0
2018-10-05T00:41:32.114Z,0
2018-10-05T00:42:41.547Z,0
2018-10-05T00:43:51.491Z,0
2018-10-05T00:45:01.184Z,0
2018-10-05T00:46:11.142Z,0
2018-10-05T00:47:20.830Z,0
2018-10-05T00:48:30.778Z,0
2018-10-05T00:49:40.473Z,0
2018-10-05T00:50:50.425Z,0
2018-10-05T00:52:00.375Z,0
2018-10-05T00:53:10.567Z,0
2018-10-05T00:54:20.267Z,0
2018-10-05T00:55:29.963Z,0
2018-10-05T00:56:39.886Z,0
2018-10-05T00:57:49.826Z,0
2018-10-05T00:58:59.520Z,0
2018-10-05T01:00:09.464Z,0
2018-10-05T01:01:18.887Z,0
2018-10-05T01:02:28.838Z,0
2018-10-05T01:03:38.784Z,0
2018-10-05T01:04:48.721Z,0
2018-10-05T01:05:58.669Z,0
2018-10-05T01:07:08.622Z,0
2018-10-05T01:08:18.321Z,0
2018-10-05T01:09:27.995Z,0
2018-10-05T01:10:37.949Z,0
2018-10-05T01:11:47.644Z,0
2018-10-05T01:12:57.595Z,0
2018-10-05T01:14:07.039Z,0
2018-10-05T01:15:16.987Z,0
2018-10-05T01:16:26.673Z,0
2018-10-05T01:17:36.368Z,0
2018-10-05T01:18:46.305Z,0
2018-10-05T01:19:56.302Z,0
2018-10-05T01:21:06.043Z,0
2018-10-05T01:22:15.997Z,0
2018-10-05T01:23:25.950Z,0
2018-10-05T01:24:35.636Z,0
2018-10-05T01:25:45.319Z,0
2018-10-05T01:26:55.272Z,0
2018-10-05T01:28:04.975Z,0
2018-10-05T01:29:14.931Z,0
2018-10-05T01:30:24.870Z,0
2018-10-05T01:31:34.825Z,0
2018-10-05T01:32:44.505Z,0
2018-10-05T01:33:54.449Z,0
2018-10-05T01:35:04.423Z,0
2018-10-05T01:36:14.116Z,0
2018-10-05T01:37:23.817Z,0
2018-10-05T01:38:33.772Z,0
2018-10-05T01:39:43.716Z,0
2018-10-05T01:40:53.663Z,0
2018-10-05T01:42:03.603Z,0
2018-10-05T01:43:13.279Z,0
2018-10-05T01:44:23.216Z,0
2018-10-05T01:45:33.182Z,0
2018-10-05T01:46:43.141Z,0
2018-10-05T01:47:53.079Z,0
2018-10-05T01:49:03.045Z,0
2018-10-05T01:50:12.473Z,0
2018-10-05T01:51:22.417Z,0
2018-10-05T01:52:32.155Z,0
2018-10-05T01:53:42.114Z,0
2018-10-05T01:54:52.062Z,0
2018-10-05T01:56:02.007Z,0
2018-10-05T01:57:11.693Z,0
2018-10-05T01:58:21.130Z,0
2018-10-05T01:59:31.061Z,0
2018-10-05T02:00:40.757Z,0
2018-10-05T02:01:50.453Z,0
2018-10-05T02:03:00.392Z,0
2018-10-05T02:04:10.338Z,0
2018-10-05T02:05:20.298Z,0
2018-10-05T02:06:30.255Z,0
2018-10-05T02:07:39.948Z,0
2018-10-05T02:08:49.651Z,0
2018-10-05T02:09:59.599Z,0
2018-10-05T02:11:09.548Z,0
2018-10-05T02:12:19.509Z,0
2018-10-05T02:13:29.213Z,0
2018-10-05T02:14:39.157Z,0
2018-10-05T02:15:49.097Z,0
2018-10-05T02:16:59.059Z,0
2018-10-05T02:18:09.024Z,0
2018-10-05T02:19:18.717Z,0
2018-10-05T02:20:28.409Z,0
2018-10-05T02:21:38.107Z,0
2018-10-05T02:22:47.789Z,0
2018-10-05T02:23:57.233Z,0
2018-10-05T02:25:06.930Z,0
2018-10-05T02:26:16.622Z,0
2018-10-05T02:27:26.508Z,0
2018-10-05T02:28:36.472Z,0
2018-10-05T02:29:46.424Z,0
2018-10-05T02:30:56.375Z,0
2018-10-05T02:32:06.321Z,0
2018-10-05T02:33:16.713Z,0
2018-10-05T02:34:26.404Z,0
2018-10-05T02:35:36.358Z,0
2018-10-05T02:36:46.296Z,0
2018-10-05T02:37:56.001Z,0
2018-10-05T02:39:05.953Z,0
2018-10-05T02:40:15.899Z,0
2018-10-05T02:41:25.859Z,0
2018-10-05T02:42:35.817Z,0
2018-10-05T02:43:45.751Z,0
2018-10-05T02:44:55.720Z,0
2018-10-05T02:46:05.671Z,0
2018-10-05T02:47:15.679Z,0
2018-10-05T02:48:25.631Z,0
2018-10-05T02:49:35.578Z,0
2018-10-05T02:50:45.284Z,0
2018-10-05T02:51:54.726Z,0
2018-10-05T02:53:04.676Z,0
2018-10-05T02:54:14.356Z,0
2018-10-05T02:55:24.318Z,0
2018-10-05T02:56:34.017Z,0
2018-10-05T02:57:43.462Z,0
2018-10-05T02:58:53.162Z,0
2018-10-05T03:00:03.120Z,0
2018-10-05T03:01:13.067Z,0
2018-10-05T03:02:22.753Z,0
2018-10-05T03:03:32.450Z,0
2018-10-05T03:04:42.396Z,0
2018-10-05T03:05:52.098Z,0
2018-10-05T03:07:02.071Z,0
2018-10-05T03:08:12.027Z,0
2018-10-05T03:09:21.717Z,0
2018-10-05T03:10:31.683Z,0
2018-10-05T03:11:41.380Z,0
2018-10-05T03:12:51.068Z,0
2018-10-05T03:14:01.023Z,0
2018-10-05T03:15:10.977Z,0
2018-10-05T03:16:20.925Z,0
2018-10-05T03:17:30.895Z,0
2018-10-05T03:18:40.646Z,0
2018-10-05T03:19:50.774Z,0
2018-10-05T03:21:00.783Z,0
2018-10-05T03:22:10.730Z,0
2018-10-05T03:23:20.689Z,0
2018-10-05T03:24:30.364Z,0
2018-10-05T03:25:40.306Z,0
2018-10-05T03:26:50.039Z,0
2018-10-05T03:27:59.736Z,0
2018-10-05T03:29:09.431Z,0
2018-10-05T03:30:19.384Z,0
2018-10-05T03:31:29.357Z,0
2018-10-05T03:32:39.310Z,0
2018-10-05T03:33:49.268Z,0
2018-10-05T03:34:59.222Z,0
2018-10-05T03:36:09.186Z,0
2018-10-05T03:37:19.141Z,0
2018-10-05T03:38:28.825Z,0
2018-10-05T03:39:38.767Z,0
2018-10-05T03:40:48.750Z,0
2018-10-05T03:41:58.704Z,0
2018-10-05T03:43:08.135Z,0
2018-10-05T03:44:17.890Z,0
2018-10-05T03:45:27.594Z,0
2018-10-05T03:46:37.292Z,0
2018-10-05T03:47:47.275Z,0
2018-10-05T03:48:57.219Z,0
2018-10-05T03:50:06.918Z,0
2018-10-05T03:51:16.867Z,0
2018-10-05T03:52:26.830Z,0
2018-10-05T03:53:36.514Z,0
2018-10-05T03:54:46.214Z,0
2018-10-05T03:55:55.915Z,0
2018-10-05T03:57:05.861Z,0
2018-10-05T03:58:15.805Z,0
2018-10-05T03:59:25.491Z,0
2018-10-05T04:00:34.924Z,0
2018-10-05T04:01:44.636Z,0
2018-10-05T04:02:53.798Z,0
2018-10-05T04:04:03.235Z,0
2018-10-05T04:05:12.932Z,0
2018-10-05T04:06:22.909Z,0
2018-10-05T04:07:32.609Z,0
2018-10-05T04:08:42.567Z,0
2018-10-05T04:09:52.522Z,0
2018-10-05T04:11:02.479Z,0
2018-10-05T04:12:12.446Z,0
2018-10-05T04:13:22.420Z,0
2018-10-05T04:14:32.126Z,0
2018-10-05T04:15:42.073Z,0
2018-10-05T04:16:52.039Z,0
2018-10-05T04:18:02.005Z,0
2018-10-05T04:19:11.960Z,0
2018-10-05T04:20:21.922Z,0
2018-10-05T04:21:31.863Z,0
2018-10-05T04:22:41.295Z,0
2018-10-05T04:23:51.248Z,0
2018-10-05T04:25:01.194Z,0
2018-10-05T04:26:10.638Z,0
2018-10-05T04:27:20.921Z,0
2018-10-05T04:28:30.957Z,0
2018-10-05T04:29:40.910Z,0
2018-10-05T04:30:50.621Z,0
2018-10-05T04:32:00.569Z,0
2018-10-05T04:33:10.514Z,0
2018-10-05T04:34:19.961Z,0
2018-10-05T04:35:30.157Z,0
2018-10-05T04:36:40.119Z,0
2018-10-05T04:37:50.053Z,0
2018-10-05T04:38:59.763Z,0
2018-10-05T04:40:09.704Z,0
2018-10-05T04:41:20.166Z,0
2018-10-05T04:42:30.196Z,0
2018-10-05T04:43:40.156Z,0
2018-10-05T04:44:50.123Z,0
2018-10-05T04:45:59.815Z,0
2018-10-05T04:47:09.515Z,0
2018-10-05T04:48:19.460Z,0
2018-10-05T04:49:29.618Z,0
2018-10-05T04:50:39.557Z,0
2018-10-05T04:51:49.503Z,0
2018-10-05T04:52:59.536Z,0
2018-10-05T04:54:09.549Z,0
2018-10-05T04:55:19.530Z,0
2018-10-05T04:56:29.311Z,0
2018-10-05T04:57:39.279Z,0
2018-10-05T04:58:48.982Z,0
2018-10-05T04:59:58.948Z,0
2018-10-05T05:01:08.912Z,0
2018-10-05T05:02:18.595Z,0
2018-10-05T05:03:28.726Z,0
2018-10-05T05:04:38.437Z,0
2018-10-05T05:05:48.392Z,0
2018-10-05T05:06:58.359Z,0
2018-10-05T05:08:08.324Z,0
2018-10-05T05:09:18.266Z,5
2018-10-05T05:10:28.205Z,5
2018-10-05T05:11:38.139Z,5
2018-10-05T05:12:47.575Z,5
2018-10-05T05:13:57.524Z,5
2018-10-05T05:15:07.218Z,5
2018-10-05T05:16:16.907Z,10
2018-10-05T05:17:26.858Z,10
2018-10-05T05:18:36.557Z,10
2018-10-05T05:19:47.091Z,10
2018-10-05T05:20:57.122Z,15
2018-10-05T05:22:07.083Z,15
2018-10-05T05:23:17.047Z,15
2018-10-05T05:24:26.783Z,20
2018-10-05T05:25:36.736Z,20
2018-10-05T05:26:46.692Z,20
2018-10-05T05:27:56.647Z,25
2018-10-05T05:29:06.608Z,25
2018-10-05T05:30:16.663Z,25
2018-10-05T05:31:26.598Z,30
2018-10-05T05:32:36.299Z,30
2018-10-05T05:33:47.266Z,30
2018-10-05T05:34:56.979Z,35
2018-10-05T05:36:06.934Z,35
2018-10-05T05:37:16.888Z,40
2018-10-05T05:38:26.836Z,40
2018-10-05T05:39:36.807Z,40
2018-10-05T05:40:46.492Z,45
2018-10-05T05:41:56.488Z,45
2018-10-05T05:43:06.433Z,45
2018-10-05T05:44:16.453Z,50
2018-10-05T05:45:26.155Z,50
2018-10-05T05:46:36.156Z,55
2018-10-05T05:47:45.580Z,55
2018-10-05T05:48:55.548Z,60
2018-10-05T05:50:05.517Z,60
2018-10-05T05:51:15.479Z,65
2018-10-05T05:52:25.470Z,70
2018-10-05T05:53:35.433Z,70
2018-10-05T05:54:45.130Z,75
2018-10-05T05:55:54.864Z,80
2018-10-05T05:57:04.829Z,80
2018-10-05T05:58:14.790Z,80
2018-10-05T05:59:24.498Z,85
2018-10-05T06:00:34.446Z,85
2018-10-05T06:01:44.406Z,90
2018-10-05T06:02:54.366Z,95
2018-10-05T06:04:04.365Z,100
2018-10-05T06:05:14.320Z,105
2018-10-05T06:06:24.366Z,110
2018-10-05T06:07:34.337Z,115
2018-10-05T06:08:44.060Z,120
2018-10-05T06:09:53.734Z,125
2018-10-05T06:11:03.438Z,125
2018-10-05T06:12:13.412Z,130
2018-10-05T06:13:23.117Z,135
2018-10-05T06:14:32.569Z,140
2018-10-05T06:15:42.304Z,140
2018-10-05T06:16:51.747Z,145
2018-10-05T06:18:01.580Z,150
2018-10-05T06:19:11.323Z,155
2018-10-05T06:20:20.843Z,160
2018-10-05T06:21:31.110Z,160
2018-10-05T06:22:41.605Z,165
2018-10-05T06:23:51.600Z,170
2018-10-05T06:25:01.390Z,170
2018-10-05T06:26:10.609Z,175
2018-10-05T06:27:20.871Z,175
2018-10-05T06:28:30.936Z,185
2018-10-05T06:29:40.905Z,185
2018-10-05T06:30:51.678Z,185
2018-10-05T06:32:01.714Z,185
2018-10-05T06:33:12.016Z,185
2018-10-05T06:34:22.013Z,185
2018-10-05T06:35:32.271Z,185
2018-10-05T06:36:42.251Z,185
2018-10-05T06:37:52.012Z,185
2018-10-05T06:39:01.848Z,185
2018-10-05T06:40:11.897Z,190
2018-10-05T06:41:21.891Z,190
2018-10-05T06:42:32.060Z,195
2018-10-05T06:43:41.882Z,200
2018-10-05T06:44:51.919Z,200
2018-10-05T06:46:01.644Z,200
2018-10-05T06:47:11.614Z,200
2018-10-05T06:48:21.615Z,205
2018-10-05T06:49:31.581Z,205
2018-10-05T06:50:41.538Z,205
2018-10-05T06:51:51.519Z,205
2018-10-05T06:53:01.240Z,210
2018-10-05T06:54:11.194Z,210
2018-10-05T06:55:21.182Z,215
2018-10-05T06:56:30.953Z,215
2018-10-05T06:57:40.936Z,220
2018-10-05T06:58:50.670Z,220
2018-10-05T07:00:00.645Z,220
2018-10-05T07:01:10.453Z,225
2018-10-05T07:02:20.466Z,225
2018-10-05T07:03:30.425Z,230
2018-10-05T07:04:40.144Z,230
2018-10-05T07:05:49.617Z,230
2018-10-05T07:06:59.324Z,235
2018-10-05T07:08:09.098Z,240
2018-10-05T07:09:19.064Z,240
2018-10-05T07:10:29.040Z,245
2018-10-05T07:11:39.439Z,245
2018-10-05T07:12:49.406Z,245
2018-10-05T07:13:58.861Z,245
2018-10-05T07:15:08.575Z,250
2018-10-05T07:16:18.563Z,250
2018-10-05T07:17:28.317Z,250
2018-10-05T07:18:38.027Z,250
2018-10-05T07:19:47.717Z,250
2018-10-05T07:20:57.715Z,250
2018-10-05T07:22:07.428Z,255
2018-10-05T07:23:17.396Z,255
2018-10-05T07:24:27.116Z,255
2018-10-05T07:25:36.832Z,260
2018-10-05T07:26:46.539Z,265
2018-10-05T07:27:56.264Z,265
2018-10-05T07:29:06.007Z,270
2018-10-05T07:30:16.181Z,280
2018-10-05T07:31:26.147Z,280
2018-10-05T07:32:36.159Z,270
2018-10-05T07:33:46.110Z,270
2018-10-05T07:34:56.109Z,275
2018-10-05T07:36:05.802Z,270
2018-10-05T07:37:16.468Z,270
2018-10-05T07:38:26.483Z,270
2018-10-05T07:39:36.172Z,275
2018-10-05T07:40:46.127Z,275
2018-10-05T07:41:56.070Z,275
2018-10-05T07:43:06.344Z,275
2018-10-05T07:44:16.164Z,280
2018-10-05T07:45:26.118Z,280
2018-10-05T07:46:36.095Z,280
2018-10-05T07:47:46.316Z,280
2018-10-05T07:48:56.285Z,285
2018-10-05T07:50:06.255Z,285
2018-10-05T07:51:16.201Z,285
2018-10-05T07:52:26.165Z,285
2018-10-05T07:53:35.880Z,300
2018-10-05T07:54:45.596Z,430
2018-10-05T07:55:55.335Z,500
2018-10-05T07:57:05.043Z,505
2018-10-05T07:58:14.735Z,520
2018-10-05T07:59:24.913Z,520
2018-10-05T08:00:34.873Z,545
2018-10-05T08:01:44.832Z,560
2018-10-05T08:02:54.801Z,570
2018-10-05T08:04:04.785Z,585
2018-10-05T08:05:14.758Z,595
2018-10-05T08:06:24.735Z,615
2018-10-05T08:07:34.745Z,615
2018-10-05T08:08:44.735Z,620
2018-10-05T08:09:54.456Z,640
2018-10-05T08:11:04.435Z,650
2018-10-05T08:12:14.485Z,670
2018-10-05T08:13:23.950Z,680
2018-10-05T08:14:33.913Z,720
2018-10-05T08:15:43.637Z,730
2018-10-05T08:16:53.345Z,740
2018-10-05T08:18:03.056Z,735
2018-10-05T08:19:13.015Z,760
2018-10-05T08:20:22.732Z,785
2018-10-05T08:21:33.146Z,805
2018-10-05T08:22:42.965Z,815
2018-10-05T08:23:52.680Z,840
2018-10-05T08:25:02.654Z,825
2018-10-05T08:26:12.635Z,845
2018-10-05T08:27:22.517Z,845
2018-10-05T08:28:32.217Z,905
2018-10-05T08:29:42.180Z,895
2018-10-05T08:30:52.263Z,890
2018-10-05T08:32:02.245Z,915
2018-10-05T08:33:11.957Z,985
2018-10-05T08:34:22.295Z,960
2018-10-05T08:35:32.335Z,975
2018-10-05T08:36:42.039Z,955
2018-10-05T08:37:52.018Z,960
2018-10-05T08:39:02.039Z,1020
2018-10-05T08:40:12.311Z,1020
2018-10-05T08:41:22.351Z,1035
2018-10-05T08:42:32.321Z,1075
2018-10-05T08:43:42.519Z,1045
2018-10-05T08:44:52.506Z,1060
2018-10-05T08:46:02.578Z,1125
2018-10-05T08:47:12.865Z,1085
2018-10-05T08:48:22.835Z,1160
2018-10-05T08:49:32.789Z,1150
2018-10-05T08:50:42.231Z,1145
2018-10-05T08:51:52.309Z,1095
2018-10-05T08:53:02.297Z,1125
2018-10-05T08:54:12.281Z,1150
2018-10-05T08:55:22.233Z,1180
2018-10-05T08:56:32.210Z,1210
2018-10-05T08:57:42.127Z,1180
2018-10-05T08:58:52.097Z,1235
2018-10-05T09:00:02.360Z,1175
2018-10-05T09:01:12.416Z,1210
2018-10-05T09:02:22.394Z,1290
2018-10-05T09:03:32.379Z,1295
2018-10-05T09:04:42.349Z,1325
2018-10-05T09:05:52.877Z,1260
2018-10-05T09:07:02.936Z,1295
2018-10-05T09:08:12.910Z,1335
2018-10-05T09:09:22.387Z,1375
2018-10-05T09:10:32.385Z,1320
2018-10-05T09:11:42.140Z,1385
2018-10-05T09:12:52.313Z,1390
2018-10-05T09:14:02.338Z,1305
2018-10-05T09:15:12.075Z,1345
2018-10-05T09:16:22.053Z,1335
2018-10-05T09:17:32.073Z,1460
2018-10-05T09:18:42.262Z,1455
2018-10-05T09:19:51.983Z,1470
2018-10-05T09:21:01.759Z,1490
2018-10-05T09:22:11.723Z,1480
2018-10-05T09:23:21.425Z,1465
2018-10-05T09:24:31.153Z,1525
2018-10-05T09:25:41.136Z,1480
2018-10-05T09:26:50.842Z,1595
2018-10-05T09:28:00.574Z,1600
2018-10-05T09:29:10.553Z,1580
2018-10-05T09:30:20.533Z,1580
2018-10-05T09:31:30.512Z,1585
2018-10-05T09:32:40.469Z,1580
2018-10-05T09:33:50.186Z,1555
2018-10-05T09:35:00.151Z,1655
2018-10-05T09:36:09.874Z,1670
2018-10-05T09:37:20.063Z,1685
2018-10-05T09:38:29.798Z,1720
2018-10-05T09:39:39.798Z,1635
2018-10-05T09:40:49.543Z,1740
2018-10-05T09:41:59.223Z,1965
2018-10-05T09:43:09.189Z,1655
2018-10-05T09:44:19.563Z,1700
2018-10-05T09:45:29.992Z,1730
2018-10-05T09:46:40.020Z,1690
2018-10-05T09:47:50.000Z,1655
2018-10-05T09:48:59.736Z,1770
2018-10-05T09:50:09.694Z,1745
2018-10-05T09:51:19.426Z,1715
2018-10-05T09:52:30.201Z,1765
2018-10-05T09:53:40.238Z,1810
2018-10-05T09:54:50.195Z,2185
2018-10-05T09:55:59.925Z,2140
2018-10-05T09:57:09.639Z,1750
2018-10-05T09:58:19.350Z,1910
2018-10-05T09:59:29.330Z,1880
2018-10-05T10:00:39.561Z,1780
2018-10-05T10:01:49.526Z,1850
2018-10-05T10:02:59.002Z,1935
2018-10-05T10:04:09.028Z,1900
2018-10-05T10:05:18.734Z,1870
2018-10-05T10:06:28.692Z,1825
2018-10-05T10:07:38.670Z,1885
2018-10-05T10:08:48.659Z,2045
2018-10-05T10:09:58.663Z,2130
2018-10-05T10:11:08.644Z,2125
2018-10-05T10:12:18.626Z,2015
2018-10-05T10:13:28.608Z,1875
2018-10-05T10:14:38.319Z,1980
2018-10-05T10:15:48.280Z,2000
2018-10-05T10:16:57.731Z,1815
2018-10-05T10:18:07.477Z,2055
2018-10-05T10:19:17.434Z,2065
2018-10-05T10:20:26.883Z,2090
2018-10-05T10:21:36.602Z,2045
2018-10-05T10:22:47.091Z,1995
2018-10-05T10:23:56.883Z,2170
2018-10-05T10:25:06.856Z,2150
2018-10-05T10:26:16.877Z,2055
2018-10-05T10:27:26.361Z,2160
2018-10-05T10:28:37.086Z,2090
2018-10-05T10:29:47.129Z,2055
2018-10-05T10:30:56.853Z,2125
2018-10-05T10:32:06.567Z,2140
2018-10-05T10:33:16.294Z,2145
2018-10-05T10:34:26.542Z,2175
2018-10-05T10:35:36.582Z,2205
2018-10-05T10:36:46.996Z,2200
2018-10-05T10:37:56.410Z,2185
2018-10-05T10:39:06.465Z,2115
2018-10-05T10:40:16.631Z,2200
2018-10-05T10:41:26.604Z,2250
2018-10-05T10:42:36.608Z,2225
2018-10-05T10:43:46.594Z,2280
2018-10-05T10:44:56.603Z,2275
2018-10-05T10:46:06.324Z,2350
2018-10-05T10:47:16.290Z,2270
2018-10-05T10:48:26.525Z,2130
2018-10-05T10:49:36.253Z,2160
2018-10-05T10:50:46.223Z,2370
2018-10-05T10:51:55.667Z,2320
2018-10-05T10:53:05.616Z,2370
2018-10-05T10:54:16.167Z,2450
2018-10-05T10:55:26.203Z,2385
2018-10-05T10:56:36.216Z,2315
2018-10-05T10:57:46.213Z,2430
2018-10-05T10:58:56.192Z,2395
2018-10-05T11:00:06.165Z,2365
2018-10-05T11:01:16.137Z,2330
2018-10-05T11:02:25.873Z,2350
2018-10-05T11:03:35.592Z,2425
2018-10-05T11:04:46.243Z,2485
2018-10-05T11:05:56.227Z,2450
2018-10-05T11:07:05.946Z,2500
2018-10-05T11:08:15.955Z,2595
2018-10-05T11:09:25.954Z,2465
2018-10-05T11:10:35.936Z,2325
2018-10-05T11:11:45.891Z,2410
2018-10-05T11:12:55.886Z,2430
2018-10-05T11:14:05.845Z,2480
2018-10-05T11:15:15.820Z,2540
2018-10-05T11:16:25.527Z,2600
2018-10-05T11:17:35.248Z,2505
2018-10-05T11:18:44.968Z,2410
2018-10-05T11:19:54.960Z,2460
2018-10-05T11:21:04.962Z,2555
2018-10-05T11:22:14.937Z,2555
2018-10-05T11:23:25.874Z,2530
2018-10-05T11:24:35.701Z,2570
2018-10-05T11:25:45.679Z,2500
2018-10-05T11:26:55.650Z,2365
2018-10-05T11:28:05.633Z,2350
2018-10-05T11:29:15.076Z,2520
2018-10-05T11:30:25.055Z,2625
2018-10-05T11:31:35.024Z,2540
2018-10-05T11:32:44.983Z,2555
2018-10-05T11:33:54.949Z,2580
2018-10-05T11:35:05.141Z,2545
2018-10-05T11:36:15.238Z,2610
2018-10-05T11:37:25.190Z,2590
2018-10-05T11:38:35.156Z,2620
2018-10-05T11:39:45.113Z,2665
2018-10-05T11:40:55.502Z,2620
2018-10-05T11:42:05.580Z,2620
2018-10-05T11:43:15.287Z,2665
2018-10-05T11:44:25.272Z,2660
2018-10-05T11:45:35.232Z,2695
2018-10-05T11:46:44.942Z,2750
2018-10-05T11:47:54.405Z,2650
2018-10-05T11:49:04.392Z,2690
2018-10-05T11:50:14.358Z,2770
2018-10-05T11:51:24.353Z,2800
2018-10-05T11:52:34.832Z,2740
2018-10-05T11:53:44.852Z,2720
2018-10-05T11:54:54.821Z,2815
2018-10-05T11:56:04.540Z,3025
2018-10-05T11:57:14.509Z,3070
2018-10-05T11:58:24.497Z,2745
2018-10-05T11:59:34.564Z,2625
2018-10-05T12:00:44.532Z,2685
2018-10-05T12:01:54.521Z,2705
2018-10-05T12:03:04.521Z,2670
2018-10-05T12:04:14.243Z,2710
2018-10-05T12:05:24.650Z,2690
2018-10-05T12:06:34.350Z,2650
2018-10-05T12:07:43.809Z,2685
2018-10-05T12:08:53.251Z,2630
2018-10-05T12:10:03.230Z,2675
2018-10-05T12:11:13.197Z,2755
2018-10-05T12:12:22.907Z,2700
2018-10-05T12:13:32.869Z,2735
2018-10-05T12:14:42.852Z,2770
2018-10-05T12:15:52.304Z,2785
2018-10-05T12:17:02.281Z,2745
2018-10-05T12:18:11.725Z,2735
2018-10-05T12:19:21.687Z,2655
2018-10-05T12:20:31.657Z,2720
2018-10-05T12:21:41.346Z,2800
2018-10-05T12:22:51.319Z,2765
2018-10-05T12:24:01.030Z,2715
2018-10-05T12:25:10.770Z,2780
2018-10-05T12:26:20.733Z,2880
2018-10-05T12:27:30.691Z,2915
2018-10-05T12:28:40.663Z,2810
2018-10-05T12:29:50.629Z,2665
2018-10-05T12:31:00.626Z,2620
2018-10-05T12:32:10.073Z,2590
2018-10-05T12:33:20.377Z,2680
2018-10-05T12:34:30.346Z,2770
2018-10-05T12:35:40.308Z,2740
2018-10-05T12:36:49.788Z,2785
2018-10-05T12:37:59.790Z,2785
2018-10-05T12:39:09.759Z,2720
2018-10-05T12:40:19.745Z,2680
2018-10-05T12:41:29.733Z,2640
2018-10-05T12:42:39.441Z,2695
2018-10-05T12:43:49.143Z,2745
2018-10-05T12:44:59.175Z,2720
2018-10-05T12:46:09.147Z,2690
2018-10-05T12:47:19.140Z,2710
2018-10-05T12:48:29.114Z,2700
2018-10-05T12:49:39.089Z,2780
2018-10-05T12:50:50.494Z,2890
2018-10-05T12:52:00.332Z,2700
2018-10-05T12:53:10.033Z,2685
2018-10-05T12:54:20.013Z,2860
2018-10-05T12:55:29.471Z,2830
2018-10-05T12:56:39.425Z,2705
2018-10-05T12:57:49.386Z,2685
2018-10-05T12:58:58.832Z,2725
2018-10-05T13:00:08.556Z,2705
2018-10-05T13:01:18.531Z,2665
2018-10-05T13:02:28.516Z,2690
2018-10-05T13:03:38.231Z,2770
2018-10-05T13:04:48.305Z,2765
2018-10-05T13:05:58.007Z,2710
2018-10-05T13:07:07.982Z,2750
2018-10-05T13:08:17.954Z,2725
2018-10-05T13:09:27.667Z,2630
2018-10-05T13:10:37.633Z,2520
2018-10-05T13:11:47.349Z,2520
2018-10-05T13:12:57.280Z,2540
2018-10-05T13:14:07.182Z,2525
2018-10-05T13:15:17.158Z,2555
2018-10-05T13:16:27.128Z,2495
2018-10-05T13:17:36.568Z,2435
2018-10-05T13:18:46.514Z,2480
2018-10-05T13:19:56.242Z,2525
2018-10-05T13:21:06.201Z,2525
2018-10-05T13:22:16.176Z,2605
2018-10-05T13:23:26.186Z,2655
2018-10-05T13:24:36.230Z,2655
2018-10-05T13:25:45.693Z,2555
2018-10-05T13:26:55.666Z,2585
2018-10-05T13:28:05.381Z,2610
2018-10-05T13:29:15.365Z,2600
2018-10-05T13:30:25.079Z,2555
2018-10-05T13:31:34.796Z,2490
2018-10-05T13:32:44.755Z,2465
2018-10-05T13:33:54.849Z,2570
2018-10-05T13:35:05.095Z,2610
2018-10-05T13:36:15.088Z,2550
2018-10-05T13:37:25.403Z,2570
2018-10-05T13:38:35.490Z,2550
2018-10-05T13:39:45.450Z,2575
2018-10-05T13:40:55.418Z,2515
2018-10-05T13:42:05.448Z,2505
2018-10-05T13:43:15.479Z,2465
2018-10-05T13:44:25.196Z,2405
2018-10-05T13:45:35.180Z,2375
2018-10-05T13:46:44.877Z,2395
2018-10-05T13:47:54.575Z,2380
2018-10-05T13:49:04.554Z,2460
2018-10-05T13:50:14.253Z,2430
2018-10-05T13:51:24.217Z,2440
2018-10-05T13:52:34.184Z,2465
2018-10-05T13:53:44.215Z,2365
2018-10-05T13:54:53.928Z,2340
2018-10-05T13:56:03.911Z,2425
2018-10-05T13:57:13.906Z,2520
2018-10-05T13:58:23.887Z,2460
2018-10-05T13:59:33.871Z,2390
2018-10-05T14:00:43.869Z,2300
2018-10-05T14:01:53.828Z,2200
2018-10-05T14:03:03.536Z,2175
2018-10-05T14:04:13.499Z,2175
2018-10-05T14:05:23.206Z,2255
2018-10-05T14:06:32.914Z,2295
2018-10-05T14:07:42.901Z,2335
2018-10-05T14:08:52.887Z,2295
2018-10-05T14:10:02.872Z,2335
2018-10-05T14:11:12.833Z,2370
2018-10-05T14:12:22.807Z,2245
2018-10-05T14:13:32.778Z,2225
2018-10-05T14:14:42.744Z,2285
2018-10-05T14:15:52.705Z,2240
2018-10-05T14:17:02.680Z,2185
2018-10-05T14:18:12.658Z,2175
2018-10-05T14:19:22.983Z,2150
2018-10-05T14:20:33.435Z,2110
2018-10-05T14:21:43.315Z,2085
2018-10-05T14:22:53.293Z,2105
2018-10-05T14:24:03.047Z,2110
2018-10-05T14:25:12.743Z,2080
2018-10-05T14:26:22.708Z,1995
2018-10-05T14:27:32.680Z,1990
2018-10-05T14:28:42.380Z,2030
2018-10-05T14:29:52.080Z,1980
2018-10-05T14:31:01.521Z,1930
2018-10-05T14:32:11.526Z,2030
2018-10-05T14:33:21.240Z,1985
2018-10-05T14:34:31.198Z,1935
2018-10-05T14:35:40.910Z,1890
2018-10-05T14:36:50.611Z,1855
2018-10-05T14:38:00.930Z,1890
2018-10-05T14:39:10.918Z,1870
2018-10-05T14:40:20.633Z,1820
2018-10-05T14:41:30.646Z,1830
2018-10-05T14:42:40.419Z,1815
2018-10-05T14:43:50.412Z,1765
2018-10-05T14:45:00.169Z,1760
2018-10-05T14:46:10.138Z,1795
2018-10-05T14:47:20.229Z,1755
2018-10-05T14:48:30.182Z,1710
2018-10-05T14:49:40.690Z,1695
2018-10-05T14:50:50.761Z,1705
2018-10-05T14:52:00.481Z,1725
2018-10-05T14:53:10.189Z,1685
2018-10-05T14:54:20.145Z,1685
2018-10-05T14:55:29.858Z,1685
2018-10-05T14:56:39.561Z,1590
2018-10-05T14:57:49.529Z,1595
2018-10-05T14:58:59.253Z,1565
2018-10-05T15:00:08.955Z,1535
2018-10-05T15:01:18.649Z,1530
2018-10-05T15:02:28.662Z,1490
2018-10-05T15:03:38.623Z,1460
2018-10-05T15:04:48.596Z,1415
2018-10-05T15:05:58.624Z,1455
2018-10-05T15:07:08.910Z,1475
2018-10-05T15:08:18.943Z,1260
2018-10-05T15:09:28.898Z,1225
2018-10-05T15:10:38.628Z,1305
2018-10-05T15:11:48.585Z,1315
2018-10-05T15:12:59.185Z,1265
2018-10-05T15:14:09.177Z,1210
2018-10-05T15:15:19.158Z,1215
2018-10-05T15:16:28.889Z,1215
2018-10-05T15:17:38.868Z,1220
2018-10-05T15:18:48.849Z,1150
2018-10-05T15:19:58.812Z,1195
2018-10-05T15:21:08.540Z,1155
2018-10-05T15:22:17.854Z,1045
2018-10-05T15:23:27.838Z,940
2018-10-05T15:24:37.818Z,880
2018-10-05T15:25:47.805Z,860
2018-10-05T15:26:57.775Z,945
2018-10-05T15:28:07.476Z,870
2018-10-05T15:29:17.430Z,950
2018-10-05T15:30:27.396Z,945
2018-10-05T15:31:37.098Z,815
2018-10-05T15:32:47.458Z,685
2018-10-05T15:33:57.476Z,700
2018-10-05T15:35:07.194Z,770
2018-10-05T15:36:17.137Z,805
2018-10-05T15:37:27.117Z,820
2018-10-05T15:38:36.851Z,780
2018-10-05T15:39:46.835Z,780
2018-10-05T15:40:56.530Z,800
2018-10-05T15:42:06.230Z,780
2018-10-05T15:43:16.180Z,720
2018-10-05T15:44:25.903Z,630
2018-10-05T15:45:35.884Z,625
2018-10-05T15:46:45.847Z,645
2018-10-05T15:47:55.805Z,630
2018-10-05T15:49:05.767Z,585
2018-10-05T15:50:15.745Z,530
2018-10-05T15:51:25.443Z,515
2018-10-05T15:52:35.159Z,500
2018-10-05T15:53:44.866Z,485
2018-10-05T15:54:54.589Z,470
2018-10-05T15:56:04.597Z,405
2018-10-05T15:57:14.299Z,395
2018-10-05T15:58:24.251Z,380
2018-10-05T15:59:34.209Z,330
2018-10-05T16:00:44.172Z,335
2018-10-05T16:01:54.134Z,355
2018-10-05T16:03:04.095Z,345
2018-10-05T16:04:13.810Z,275
2018-10-05T16:05:23.617Z,180
2018-10-05T16:06:33.630Z,145
2018-10-05T16:07:43.364Z,140
2018-10-05T16:08:53.349Z,135
2018-10-05T16:10:03.323Z,130
2018-10-05T16:11:13.311Z,125
2018-10-05T16:12:23.586Z,115